createdAt,value
2023-04-25T00:00:26.861Z,4.40
2023-04-25T00:02:54.376Z,4.10
2023-04-25T00:05:24.342Z,3.67
2023-04-25T00:07:52.204Z,3.83
2023-04-25T00:10:20.242Z,4.05
2023-04-25T00:12:47.557Z,4.18
2023-04-25T00:15:14.920Z,4.00
2023-04-25T00:17:42.254Z,3.80
2023-04-25T00:20:12.806Z,3.70
2023-04-25T00:22:40.172Z,3.63
2023-04-25T00:25:07.704Z,3.83
2023-04-25T00:27:35.122Z,3.15
2023-04-25T00:30:02.498Z,3.63
2023-04-25T00:32:29.826Z,3.88
2023-04-25T00:34:59.056Z,3.35
2023-04-25T00:37:26.641Z,3.63
2023-04-25T00:39:55.904Z,3.33
2023-04-25T00:42:23.550Z,3.83
2023-04-25T00:44:51.588Z,3.03
2023-04-25T00:47:19.641Z,3.40
2023-04-25T00:49:46.952Z,3.20
2023-04-25T00:52:14.293Z,3.20
2023-04-25T00:54:41.754Z,3.40
2023-04-25T00:57:09.062Z,4.05
2023-04-25T00:59:37.936Z,3.90
2023-04-25T01:02:05.936Z,3.63
2023-04-25T01:04:33.321Z,3.58
2023-04-25T01:07:01.213Z,3.83
2023-04-25T01:09:29.435Z,3.80
2023-04-25T01:11:56.760Z,3.78
2023-04-25T01:14:24.024Z,3.78
2023-04-25T01:16:51.638Z,3.65
2023-04-25T01:19:19.322Z,4.57
2023-04-25T01:21:47.624Z,3.80
2023-04-25T01:24:15.671Z,3.80
2023-04-25T01:26:50.665Z,3.53
2023-04-25T01:29:22.678Z,3.80
2023-04-25T01:31:50.525Z,3.70
2023-04-25T01:34:18.087Z,3.50
2023-04-25T01:36:45.499Z,3.55
2023-04-25T01:39:13.322Z,3.63
2023-04-25T01:41:40.918Z,3.70
2023-04-25T01:44:08.493Z,3.88
2023-04-25T01:46:37.262Z,4.28
2023-04-25T01:49:05.990Z,3.75
2023-04-25T01:51:33.960Z,3.85
2023-04-25T01:54:02.132Z,4.20
2023-04-25T01:56:34.074Z,3.85
2023-04-25T01:59:03.323Z,3.65
2023-04-25T02:01:51.056Z,3.70
2023-04-25T02:04:26.085Z,3.35
2023-04-25T02:06:53.880Z,4.10
2023-04-25T02:09:21.720Z,2.70
2023-04-25T02:11:54.208Z,3.05
2023-04-25T02:14:28.418Z,4.00
2023-04-25T02:17:15.695Z,4.13
2023-04-25T02:19:43.138Z,3.28
2023-04-25T02:22:11.426Z,3.47
2023-04-25T02:24:38.840Z,3.78
2023-04-25T02:27:07.003Z,3.55
2023-04-25T02:29:36.264Z,4.38
2023-04-25T02:32:03.556Z,3.65
2023-04-25T02:34:30.989Z,4.45
2023-04-25T02:37:01.763Z,3.63
2023-04-25T02:39:29.097Z,4.63
2023-04-25T02:41:57.067Z,5.35
2023-04-25T02:44:24.441Z,5.40
2023-04-25T02:46:51.937Z,5.05
2023-04-25T02:49:19.378Z,5.53
2023-04-25T02:51:46.739Z,5.13
2023-04-25T02:54:15.305Z,4.00
2023-04-25T02:56:45.612Z,4.40
2023-04-25T02:59:18.242Z,3.95
2023-04-25T03:01:46.335Z,4.28
2023-04-25T03:04:13.879Z,4.25
2023-04-25T03:06:41.212Z,4.60
2023-04-25T03:09:08.653Z,4.90
2023-04-25T03:11:35.960Z,4.70
2023-04-25T03:14:03.459Z,4.40
2023-04-25T03:16:31.958Z,4.75
2023-04-25T03:18:59.431Z,3.33
2023-04-25T03:21:27.530Z,3.42
2023-04-25T03:23:54.883Z,3.67
2023-04-25T03:26:22.501Z,3.95
2023-04-25T03:28:49.875Z,3.83
2023-04-25T03:31:17.850Z,2.78
2023-04-25T03:33:45.345Z,2.90
2023-04-25T03:36:12.672Z,2.58
2023-04-25T03:38:42.291Z,2.92
2023-04-25T03:41:10.492Z,2.55
2023-04-25T03:43:48.364Z,3.42
2023-04-25T03:46:17.414Z,2.83
2023-04-25T03:48:44.737Z,3.22
2023-04-25T03:51:17.758Z,2.35
2023-04-25T03:53:46.185Z,2.50
2023-04-25T03:56:16.701Z,1.90
2023-04-25T03:58:46.640Z,2.10
2023-04-25T04:01:16.210Z,2.25
2023-04-25T04:03:43.661Z,2.72
2023-04-25T04:06:11.775Z,2.92
2023-04-25T04:08:45.039Z,2.13
2023-04-25T04:11:12.826Z,3.08
2023-04-25T04:13:40.195Z,2.65
2023-04-25T04:16:08.680Z,2.28
2023-04-25T04:18:36.801Z,3.05
2023-04-25T04:21:04.162Z,2.70
2023-04-25T04:23:34.738Z,2.60
2023-04-25T04:26:02.356Z,2.85
2023-04-25T04:28:40.841Z,2.80
2023-04-25T04:31:31.871Z,2.70
2023-04-25T04:34:00.303Z,3.05
2023-04-25T04:36:27.722Z,2.50
2023-04-25T04:38:57.404Z,3.00
2023-04-25T04:41:35.598Z,2.75
2023-04-25T04:44:16.292Z,2.92
2023-04-25T04:46:50.588Z,2.58
2023-04-25T04:49:33.217Z,2.67
2023-04-25T04:52:19.283Z,2.50
2023-04-25T04:54:56.794Z,2.78
2023-04-25T04:57:53.448Z,2.53
2023-04-25T05:00:41.400Z,2.78
2023-04-25T05:03:33.576Z,2.38
2023-04-25T05:06:03.677Z,2.42
2023-04-25T05:08:38.623Z,2.42
2023-04-25T05:11:31.472Z,2.40
2023-04-25T05:14:19.271Z,2.50
2023-04-25T05:17:07.561Z,3.25
2023-04-25T05:19:56.141Z,2.72
2023-04-25T05:22:51.304Z,2.15
2023-04-25T05:25:38.865Z,2.08
2023-04-25T05:28:32.174Z,2.05
2023-04-25T05:31:13.856Z,2.95
2023-04-25T05:34:07.782Z,3.08
2023-04-25T05:36:44.983Z,2.58
2023-04-25T05:39:12.355Z,2.40
2023-04-25T05:42:02.520Z,3.53
2023-04-25T05:45:08.766Z,2.00
2023-04-25T05:48:08.543Z,2.10
2023-04-25T05:50:54.591Z,2.58
2023-04-25T05:53:54.411Z,2.17
2023-04-25T05:56:22.582Z,2.58
2023-04-25T05:58:53.146Z,2.42
2023-04-25T06:01:20.901Z,2.20
2023-04-25T06:03:48.660Z,2.35
2023-04-25T06:06:18.344Z,2.42
2023-04-25T06:08:46.050Z,2.72
2023-04-25T06:11:13.543Z,2.67
2023-04-25T06:13:40.909Z,2.20
2023-04-25T06:16:08.851Z,2.92
2023-04-25T06:18:36.238Z,2.95
2023-04-25T06:21:03.667Z,2.28
2023-04-25T06:23:31.147Z,2.45
2023-04-25T06:26:03.460Z,2.80
2023-04-25T06:28:32.024Z,2.58
2023-04-25T06:31:00.544Z,3.28
2023-04-25T06:33:28.249Z,2.57
2023-04-25T06:35:56.499Z,2.53
2023-04-25T06:38:27.141Z,2.92
2023-04-25T06:40:57.024Z,3.20
2023-04-25T06:43:24.352Z,2.65
2023-04-25T06:45:54.679Z,2.25
2023-04-25T06:48:23.673Z,2.10
2023-04-25T06:50:51.736Z,2.58
2023-04-25T06:53:19.971Z,2.50
2023-04-25T06:55:51.977Z,2.60
2023-04-25T06:58:22.070Z,2.40
2023-04-25T07:01:25.012Z,2.50
2023-04-25T07:03:52.510Z,2.85
2023-04-25T07:06:20.497Z,3.22
2023-04-25T07:08:47.893Z,2.58
2023-04-25T07:11:15.354Z,2.47
2023-04-25T07:13:42.714Z,2.83
2023-04-25T07:16:09.995Z,2.13
2023-04-25T07:18:37.752Z,2.30
2023-04-25T07:21:05.213Z,2.67
2023-04-25T07:23:34.412Z,3.25
2023-04-25T07:26:07.865Z,3.00
2023-04-25T07:28:35.294Z,2.10
2023-04-25T07:31:03.750Z,2.75
2023-04-25T07:33:32.980Z,3.17
2023-04-25T07:36:00.840Z,2.92
2023-04-25T07:38:28.906Z,1.75
2023-04-25T07:40:56.289Z,1.77
2023-04-25T07:43:23.885Z,2.33
2023-04-25T07:45:58.782Z,1.77
2023-04-25T07:48:28.551Z,1.90
2023-04-25T07:50:57.312Z,1.55
2023-04-25T07:53:24.979Z,1.25
2023-04-25T07:56:00.045Z,2.03
2023-04-25T07:58:29.661Z,1.90
2023-04-25T08:01:01.012Z,2.07
2023-04-25T08:03:42.852Z,2.08
2023-04-25T08:06:17.373Z,2.72
2023-04-25T08:08:53.826Z,2.60
2023-04-25T08:11:24.332Z,3.55
2023-04-25T08:13:51.655Z,2.27
2023-04-25T08:16:19.086Z,2.25
2023-04-25T08:18:47.465Z,2.10
2023-04-25T08:21:15.015Z,2.95
2023-04-25T08:23:42.643Z,3.13
2023-04-25T08:26:13.435Z,2.92
2023-04-25T08:28:42.902Z,2.30
2023-04-25T08:31:10.246Z,2.95
2023-04-25T08:33:55.444Z,1.98
2023-04-25T08:36:39.308Z,3.22
2023-04-25T08:39:19.964Z,1.97
2023-04-25T08:42:11.941Z,2.63
2023-04-25T08:44:39.575Z,2.60
2023-04-25T08:47:07.402Z,3.03
2023-04-25T08:49:46.995Z,2.95
2023-04-25T08:52:15.462Z,2.77
2023-04-25T08:54:50.213Z,3.42
2023-04-25T08:57:18.982Z,2.45
2023-04-25T08:59:49.304Z,3.00
2023-04-25T09:02:19.106Z,2.47
2023-04-25T09:04:50.180Z,2.57
2023-04-25T09:07:20.058Z,1.60
2023-04-25T09:09:47.367Z,1.73
2023-04-25T09:12:20.987Z,1.98
2023-04-25T09:15:06.446Z,1.80
2023-04-25T09:17:57.112Z,1.90
2023-04-25T09:20:26.051Z,2.85
2023-04-25T09:23:03.617Z,1.80
2023-04-25T09:25:44.358Z,2.25
2023-04-25T09:28:12.759Z,1.70
2023-04-25T09:30:40.753Z,1.70
2023-04-25T09:33:14.528Z,2.05
2023-04-25T09:35:47.348Z,1.63
2023-04-25T09:38:22.696Z,1.38
2023-04-25T09:41:03.313Z,1.60
2023-04-25T09:43:39.617Z,2.10
2023-04-25T09:46:12.387Z,1.50
2023-04-25T09:48:49.565Z,1.65
2023-04-25T09:51:18.231Z,1.60
2023-04-25T09:53:52.188Z,1.42
2023-04-25T09:56:38.698Z,1.40
2023-04-25T09:59:08.958Z,1.52
2023-04-25T10:01:39.015Z,1.63
2023-04-25T10:04:14.596Z,1.60
2023-04-25T10:07:08.714Z,1.92
2023-04-25T10:09:38.719Z,1.85
2023-04-25T10:12:06.705Z,1.60
2023-04-25T10:14:34.119Z,1.77
2023-04-25T10:17:01.667Z,1.80
2023-04-25T10:19:30.102Z,1.70
2023-04-25T10:22:05.177Z,1.80
2023-04-25T10:24:33.276Z,2.08
2023-04-25T10:27:00.735Z,1.88
2023-04-25T10:29:28.264Z,2.20
2023-04-25T10:31:56.477Z,2.33
2023-04-25T10:34:39.775Z,2.30
2023-04-25T10:37:07.961Z,2.70
2023-04-25T10:39:35.403Z,1.83
2023-04-25T10:42:03.663Z,2.13
2023-04-25T10:44:32.010Z,1.75
2023-04-25T10:47:04.358Z,2.00
2023-04-25T10:49:34.698Z,1.80
2023-04-25T10:52:14.219Z,1.70
2023-04-25T10:54:48.192Z,2.60
2023-04-25T10:57:34.569Z,1.70
2023-04-25T11:00:06.094Z,1.23
2023-04-25T11:02:33.876Z,1.50
2023-04-25T11:05:01.428Z,1.63
2023-04-25T11:07:39.069Z,2.15
2023-04-25T11:10:07.164Z,2.30
2023-04-25T11:12:34.480Z,1.70
2023-04-25T11:15:02.488Z,1.92
2023-04-25T11:17:30.732Z,2.13
2023-04-25T11:19:58.183Z,1.80
2023-04-25T11:22:25.701Z,2.22
2023-04-25T11:24:53.112Z,2.13
2023-04-25T11:27:20.929Z,2.30
2023-04-25T11:29:51.258Z,1.98
2023-04-25T11:32:21.311Z,1.23
2023-04-25T11:34:49.252Z,1.58
2023-04-25T11:37:17.129Z,1.53
2023-04-25T11:39:46.373Z,1.90
2023-04-25T11:42:14.195Z,2.00
2023-04-25T11:44:41.858Z,1.63
2023-04-25T11:47:09.333Z,1.73
2023-04-25T11:49:37.311Z,1.67
2023-04-25T11:52:04.731Z,1.70
2023-04-25T11:54:32.157Z,1.30
2023-04-25T11:56:59.506Z,1.95
2023-04-25T11:59:27.583Z,1.73
2023-04-25T12:01:55.279Z,1.60
2023-04-25T12:04:24.199Z,1.40
2023-04-25T12:06:53.291Z,1.88
2023-04-25T12:09:25.109Z,1.70
2023-04-25T12:11:56.365Z,1.98
2023-04-25T12:14:28.355Z,1.70
2023-04-25T12:17:00.288Z,1.73
2023-04-25T12:19:28.658Z,1.75
2023-04-25T12:21:59.167Z,1.90
2023-04-25T12:24:28.740Z,2.40
2023-04-25T12:27:03.944Z,2.73
2023-04-25T12:29:41.865Z,2.60
2023-04-25T12:32:16.569Z,1.83
2023-04-25T12:34:44.072Z,1.95
2023-04-25T12:37:11.652Z,1.55
2023-04-25T12:39:39.078Z,2.47
2023-04-25T12:42:09.659Z,1.65
2023-04-25T12:44:37.433Z,1.35
2023-04-25T12:47:04.951Z,1.95
2023-04-25T12:49:32.694Z,1.98
2023-04-25T12:52:00.019Z,1.67
2023-04-25T12:54:27.508Z,1.60
2023-04-25T12:56:55.902Z,1.50
2023-04-25T12:59:23.513Z,1.90
2023-04-25T13:01:50.897Z,1.88
2023-04-25T13:04:18.757Z,1.70
2023-04-25T13:06:46.397Z,2.35
2023-04-25T13:09:13.934Z,1.60
2023-04-25T13:11:42.429Z,1.40
2023-04-25T13:14:09.818Z,2.20
2023-04-25T13:16:37.403Z,2.10
2023-04-25T13:19:04.801Z,1.83
2023-04-25T13:21:33.643Z,1.50
2023-04-25T13:24:01.208Z,1.65
2023-04-25T13:26:28.509Z,1.55
2023-04-25T13:28:55.864Z,1.90
2023-04-25T13:31:23.277Z,1.92
2023-04-25T13:33:51.063Z,1.60
2023-04-25T13:36:18.518Z,1.10
2023-04-25T13:38:48.294Z,1.73
2023-04-25T13:41:19.778Z,3.40
2023-04-25T13:43:48.878Z,1.95
2023-04-25T13:46:35.487Z,1.65
2023-04-25T13:49:12.233Z,1.50
2023-04-25T13:51:40.489Z,1.55
2023-04-25T13:54:08.581Z,1.27
2023-04-25T13:56:35.978Z,1.50
2023-04-25T13:59:03.307Z,1.50
2023-04-25T14:01:32.276Z,1.55
2023-04-25T14:03:59.738Z,1.73
2023-04-25T14:06:28.446Z,1.60
2023-04-25T14:08:56.096Z,2.35
2023-04-25T14:11:23.481Z,1.58
2023-04-25T14:13:51.008Z,1.42
2023-04-25T14:16:18.702Z,1.60
2023-04-25T14:18:46.150Z,1.47
2023-04-25T14:21:13.533Z,1.92
2023-04-25T14:23:41.302Z,1.98
2023-04-25T14:26:10.550Z,1.88
2023-04-25T14:28:37.857Z,2.10
2023-04-25T14:31:05.228Z,1.57
2023-04-25T14:33:32.820Z,1.63
2023-04-25T14:36:00.069Z,1.60
2023-04-25T14:38:27.832Z,2.80
2023-04-25T14:40:55.361Z,2.17
2023-04-25T14:43:22.791Z,2.57
2023-04-25T14:45:50.263Z,2.88
2023-04-25T14:48:20.474Z,2.35
2023-04-25T14:50:48.161Z,2.08
2023-04-25T14:53:15.680Z,1.85
2023-04-25T14:55:43.087Z,2.33
2023-04-25T14:58:10.503Z,1.58
2023-04-25T15:00:38.439Z,2.42
2023-04-25T15:03:06.622Z,2.05
2023-04-25T15:05:34.101Z,1.95
2023-04-25T15:08:01.498Z,1.67
2023-04-25T15:10:28.918Z,1.98
2023-04-25T15:12:56.460Z,1.73
2023-04-25T15:15:26.986Z,2.13
2023-04-25T15:17:58.816Z,1.42
2023-04-25T15:20:27.866Z,3.47
2023-04-25T15:22:55.615Z,1.90
2023-04-25T15:25:22.970Z,1.70
2023-04-25T15:27:50.472Z,2.45
2023-04-25T15:30:18.213Z,1.80
2023-04-25T15:32:46.505Z,1.50
2023-04-25T15:35:14.572Z,3.38
2023-04-25T15:37:42.164Z,1.77
2023-04-25T15:40:11.157Z,1.65
2023-04-25T15:42:38.871Z,1.65
2023-04-25T15:45:07.674Z,1.93
2023-04-25T15:47:35.764Z,2.38
2023-04-25T15:50:05.167Z,2.58
2023-04-25T15:52:32.844Z,1.88
2023-04-25T15:55:00.189Z,2.30
2023-04-25T15:57:27.612Z,2.20
2023-04-25T15:59:54.913Z,1.98
2023-04-25T16:02:22.423Z,1.98
2023-04-25T16:04:49.997Z,1.70
2023-04-25T16:07:17.441Z,2.28
2023-04-25T16:09:45.525Z,1.93
2023-04-25T16:12:12.848Z,1.85
2023-04-25T16:14:40.190Z,2.03
2023-04-25T16:17:07.481Z,1.88
2023-04-25T16:19:34.877Z,1.70
2023-04-25T16:22:02.376Z,1.73
2023-04-25T16:24:29.845Z,1.70
2023-04-25T16:26:57.686Z,1.60
2023-04-25T16:29:24.971Z,2.28
2023-04-25T16:31:52.382Z,2.05
2023-04-25T16:34:19.996Z,1.23
2023-04-25T16:36:47.270Z,1.73
2023-04-25T16:39:14.521Z,2.28
2023-04-25T16:41:41.964Z,2.10
2023-04-25T16:44:09.400Z,1.90
2023-04-25T16:46:36.728Z,1.40
2023-04-25T16:49:04.293Z,2.47
2023-04-25T16:51:32.586Z,2.13
2023-04-25T16:54:00.381Z,2.08
2023-04-25T16:56:27.643Z,1.80
2023-04-25T16:58:54.968Z,2.60
2023-04-25T17:01:22.732Z,2.50
2023-04-25T17:03:51.858Z,2.15
2023-04-25T17:06:19.891Z,2.28
2023-04-25T17:08:47.361Z,2.40
2023-04-25T17:11:14.803Z,2.40
2023-04-25T17:13:44.020Z,1.30
2023-04-25T17:16:12.686Z,2.13
2023-04-25T17:18:40.043Z,1.90
2023-04-25T17:21:08.029Z,1.55
2023-04-25T17:23:35.420Z,1.30
2023-04-25T17:26:02.761Z,1.80
2023-04-25T17:28:30.113Z,2.13
2023-04-25T17:30:57.733Z,1.65
2023-04-25T17:33:27.181Z,1.98
2023-04-25T17:35:55.534Z,2.63
2023-04-25T17:38:22.951Z,2.20
2023-04-25T17:40:50.364Z,2.00
2023-04-25T17:43:18.394Z,2.30
2023-04-25T17:45:45.872Z,2.28
2023-04-25T17:48:13.390Z,2.47
2023-04-25T17:50:41.202Z,2.92
2023-04-25T17:53:09.068Z,2.00
2023-04-25T17:55:36.325Z,2.78
2023-04-25T17:58:04.075Z,2.40
2023-04-25T18:00:33.606Z,2.10
2023-04-25T18:03:01.351Z,2.00
2023-04-25T18:05:30.927Z,2.72
2023-04-25T18:07:58.623Z,1.77
2023-04-25T18:10:25.935Z,2.55
2023-04-25T18:12:53.398Z,2.43
2023-04-25T18:15:22.124Z,2.67
2023-04-25T18:17:49.621Z,2.47
2023-04-25T18:20:17.837Z,2.10
2023-04-25T18:22:46.168Z,2.00
2023-04-25T18:25:13.882Z,3.57
2023-04-25T18:27:41.868Z,2.65
2023-04-25T18:30:10.692Z,3.53
2023-04-25T18:32:38.581Z,2.50
2023-04-25T18:35:06.963Z,2.53
2023-04-25T18:37:34.530Z,2.83
2023-04-25T18:40:06.302Z,2.47
2023-04-25T18:42:34.180Z,2.72
2023-04-25T18:45:01.504Z,2.70
2023-04-25T18:47:29.108Z,2.88
2023-04-25T18:49:56.413Z,3.10
2023-04-25T18:52:23.897Z,2.60
2023-04-25T18:54:51.272Z,2.83
2023-04-25T18:57:18.888Z,2.65
2023-04-25T18:59:46.359Z,3.50
2023-04-25T19:02:16.143Z,3.63
2023-04-25T19:04:44.227Z,2.55
2023-04-25T19:07:11.614Z,3.58
2023-04-25T19:09:38.937Z,3.08
2023-04-25T19:12:06.498Z,4.68
2023-04-25T19:14:33.911Z,3.83
2023-04-25T19:17:01.440Z,3.13
2023-04-25T19:19:28.870Z,3.50
2023-04-25T19:21:56.293Z,3.10
2023-04-25T19:24:23.670Z,2.83
2023-04-25T19:26:51.014Z,2.90
2023-04-25T19:29:18.336Z,2.80
2023-04-25T19:31:46.161Z,3.28
2023-04-25T19:34:13.900Z,2.72
2023-04-25T19:36:43.973Z,2.80
2023-04-25T19:39:11.856Z,3.30
2023-04-25T19:41:39.493Z,2.85
2023-04-25T19:44:08.586Z,4.60
2023-04-25T19:46:36.886Z,3.63
2023-04-25T19:49:07.236Z,3.45
2023-04-25T19:51:35.254Z,3.03
2023-04-25T19:54:02.917Z,3.72
2023-04-25T19:56:30.354Z,3.95
2023-04-25T19:59:00.819Z,2.83
2023-04-25T20:01:28.457Z,3.65
2023-04-25T20:03:56.656Z,3.10
2023-04-25T20:06:24.303Z,2.88
2023-04-25T20:08:54.127Z,2.65
2023-04-25T20:11:21.839Z,3.72
2023-04-25T20:13:49.203Z,3.70
2023-04-25T20:16:19.881Z,3.60
2023-04-25T20:18:48.394Z,3.05
2023-04-25T20:21:16.326Z,3.08
2023-04-25T20:23:44.065Z,4.57
2023-04-25T20:26:12.905Z,3.55
2023-04-25T20:28:41.830Z,3.17
2023-04-25T20:31:10.615Z,3.03
2023-04-25T20:33:38.770Z,3.47
2023-04-25T20:36:06.259Z,3.17
2023-04-25T20:38:33.599Z,2.88
2023-04-25T20:41:01.028Z,2.83
2023-04-25T20:43:29.291Z,2.05
2023-04-25T20:45:57.403Z,2.83
2023-04-25T20:48:24.728Z,2.35
2023-04-25T20:50:52.170Z,2.55
2023-04-25T20:53:19.512Z,2.97
2023-04-25T20:55:47.322Z,2.83
2023-04-25T20:58:15.115Z,2.55
2023-04-25T21:00:42.569Z,2.65
2023-04-25T21:03:10.831Z,3.08
2023-04-25T21:05:38.368Z,3.03
2023-04-25T21:08:05.883Z,2.30
2023-04-25T21:10:34.082Z,2.70
2023-04-25T21:13:02.950Z,2.80
2023-04-25T21:15:30.430Z,3.38
2023-04-25T21:17:58.096Z,3.15
2023-04-25T21:20:25.388Z,3.85
2023-04-25T21:22:54.209Z,3.55
2023-04-25T21:25:30.080Z,3.83
2023-04-25T21:27:57.834Z,3.45
2023-04-25T21:30:26.019Z,2.80
2023-04-25T21:32:53.912Z,3.22
2023-04-25T21:35:22.078Z,3.45
2023-04-25T21:37:49.576Z,3.38
2023-04-25T21:40:17.045Z,3.67
2023-04-25T21:42:45.999Z,3.10
2023-04-25T21:45:13.401Z,3.80
2023-04-25T21:47:41.085Z,3.33
2023-04-25T21:50:08.681Z,3.53
2023-04-25T21:52:39.178Z,3.90
2023-04-25T21:55:06.602Z,3.53
2023-04-25T21:57:33.874Z,3.90
2023-04-25T22:00:01.308Z,3.65
2023-04-25T22:02:31.037Z,3.72
2023-04-25T22:04:58.618Z,3.58
2023-04-25T22:07:26.077Z,3.17
2023-04-25T22:09:55.349Z,4.25
2023-04-25T22:12:23.655Z,4.63
2023-04-25T22:14:51.383Z,4.32
2023-04-25T22:17:19.384Z,4.25
2023-04-25T22:19:47.123Z,4.60
2023-04-25T22:22:14.846Z,3.75
2023-04-25T22:24:42.293Z,5.13
2023-04-25T22:27:11.120Z,4.60
2023-04-25T22:29:38.504Z,5.07
2023-04-25T22:32:05.990Z,4.90
2023-04-25T22:34:33.425Z,4.60
2023-04-25T22:37:00.737Z,5.32
2023-04-25T22:39:28.376Z,4.82
2023-04-25T22:41:55.977Z,4.75
2023-04-25T22:44:23.307Z,4.68
2023-04-25T22:46:50.649Z,5.43
2023-04-25T22:49:17.955Z,4.05
2023-04-25T22:51:45.238Z,4.88
2023-04-25T22:54:12.534Z,4.60
2023-04-25T22:56:39.859Z,5.07
2023-04-25T22:59:07.297Z,4.40
2023-04-25T23:01:36.328Z,4.35
2023-04-25T23:04:04.172Z,4.63
2023-04-25T23:06:31.666Z,4.60
2023-04-25T23:08:59.081Z,4.63
2023-04-25T23:11:26.372Z,4.57
2023-04-25T23:13:53.700Z,3.80
2023-04-25T23:16:21.317Z,3.97
2023-04-25T23:18:48.655Z,4.18
2023-04-25T23:21:15.922Z,3.42
2023-04-25T23:23:43.742Z,3.70
2023-04-25T23:26:11.689Z,3.80
2023-04-25T23:28:41.603Z,4.03
2023-04-25T23:31:10.352Z,4.30
2023-04-25T23:33:37.956Z,4.60
2023-04-25T23:36:05.349Z,4.95
2023-04-25T23:38:32.799Z,4.63
2023-04-25T23:41:00.081Z,5.35
2023-04-25T23:43:27.453Z,10.52
2023-04-25T23:45:55.387Z,24.58
2023-04-25T23:48:23.104Z,12.52
2023-04-25T23:50:50.435Z,11.50
2023-04-25T23:53:17.737Z,7.15
2023-04-25T23:55:45.008Z,4.82
2023-04-25T23:58:12.295Z,4.70
